Time;durP1;ratioP1;P1;durP2;ratioP2;P2;SDS_P1;SDS_P2;PMS_P1;PMS_P2;Temp;Humidity;BMP_temperature;BMP_pressure;BME280_temperature;BME280_humidity;BME280_pressure;Samples;Min_cycle;Max_cycle;Signal;HPM_P1;HPM_P2
2022/03/26 00:00:18;;;;;;;0.60;0.60;;;;;;;11.03;49.84;102362.97;693205;28;22406;-63
2022/03/26 00:00:40;;;;;;;0.60;0.60;;;;;;;11.03;49.58;102366.50;693605;28;21824;-63
2022/03/26 00:01:07;;;;;;;0.70;0.70;;;;;;;11.03;49.83;102360.25;688799;28;160919;-64
2022/03/26 00:01:28;;;;;;;0.80;0.80;;;;;;;11.04;49.87;102364.69;692633;28;44467;-63
2022/03/26 00:01:50;;;;;;;0.68;0.68;;;;;;;11.03;49.70;102358.41;692597;28;22133;-63
2022/03/26 00:02:11;;;;;;;0.50;0.50;;;;;;;11.04;49.76;102368.22;692754;28;46348;-64
2022/03/26 00:02:32;;;;;;;0.52;0.52;;;;;;;11.02;49.89;102354.00;694203;28;23444;-64
2022/03/26 00:02:54;;;;;;;0.70;0.70;;;;;;;11.04;49.93;102362.81;692800;28;22385;-63
2022/03/26 00:03:17;;;;;;;0.68;0.68;;;;;;;11.03;50.02;102361.09;693271;28;46341;-64
2022/03/26 00:03:38;;;;;;;0.60;0.60;;;;;;;11.05;49.96;102363.66;692990;28;45344;-63
2022/03/26 00:03:59;;;;;;;0.70;0.70;;;;;;;11.04;49.88;102368.22;693203;28;23525;-63
2022/03/26 00:04:20;;;;;;;0.70;0.70;;;;;;;11.04;49.56;102367.38;692952;28;22405;-63
2022/03/26 00:04:42;;;;;;;0.70;0.70;;;;;;;11.05;49.70;102366.38;694111;28;21598;-63
2022/03/26 00:05:03;;;;;;;0.68;0.68;;;;;;;11.02;49.81;102359.41;692935;28;44405;-63
2022/03/26 00:05:24;;;;;;;0.63;0.63;;;;;;;11.02;49.69;102362.13;693714;28;46318;-63
2022/03/26 00:05:46;;;;;;;0.70;0.70;;;;;;;10.99;49.83;102357.84;693385;28;22424;-64
2022/03/26 00:06:08;;;;;;;0.70;0.70;;;;;;;10.98;49.81;102366.94;692833;28;46346;-64
2022/03/26 00:06:29;;;;;;;0.70;0.70;;;;;;;10.95;49.61;102356.41;693771;28;46357;-64
2022/03/26 00:06:51;;;;;;;0.70;0.70;;;;;;;10.97;49.80;102359.84;692761;28;22413;-64
2022/03/26 00:07:12;;;;;;;0.70;0.70;;;;;;;10.94;49.99;102353.84;693310;28;23501;-63
2022/03/26 00:07:35;;;;;;;0.90;0.90;;;;;;;10.98;50.07;102366.09;693404;28;23452;-64
2022/03/26 00:07:56;;;;;;;0.70;0.70;;;;;;;10.97;49.75;102362.53;690308;28;69407;-63
2022/03/26 00:08:17;;;;;;;0.60;0.60;;;;;;;10.97;49.94;102367.94;693355;28;22507;-64
2022/03/26 00:08:38;;;;;;;0.70;0.70;;;;;;;10.95;49.98;102355.56;694129;28;19576;-64
2022/03/26 00:09:00;;;;;;;0.80;0.80;;;;;;;10.96;50.06;102368.94;693333;28;17537;-64
2022/03/26 00:09:21;;;;;;;0.80;0.80;;;;;;;10.96;50.16;102359.97;693641;28;30264;-64
2022/03/26 00:09:42;;;;;;;0.70;0.70;;;;;;;10.95;50.18;102359.09;693279;28;23557;-64
2022/03/26 00:10:05;;;;;;;0.70;0.70;;;;;;;10.97;50.16;102358.97;693693;28;23460;-64
2022/03/26 00:10:27;;;;;;;0.80;0.80;;;;;;;10.96;49.73;102368.09;693767;28;1528;-64
2022/03/26 00:10:48;;;;;;;0.90;0.90;;;;;;;10.94;50.10;102362.81;692587;28;46273;-63
2022/03/26 00:11:09;;;;;;;0.88;0.88;;;;;;;10.94;50.22;102362.81;692945;28;22589;-64
2022/03/26 00:11:31;;;;;;;0.70;0.70;;;;;;;10.93;49.80;102358.41;692512;28;23558;-64
2022/03/26 00:11:52;;;;;;;0.70;0.70;;;;;;;10.93;49.78;102361.09;692588;28;45277;-64
2022/03/26 00:12:14;;;;;;;0.90;0.90;;;;;;;10.91;49.93;102360.41;692577;28;22546;-63
2022/03/26 00:12:35;;;;;;;0.80;0.80;;;;;;;10.91;50.05;102365.81;692740;28;44459;-63
2022/03/26 00:12:57;;;;;;;0.68;0.68;;;;;;;10.90;49.87;102352.44;692911;28;46413;-64
2022/03/26 00:13:20;;;;;;;0.70;0.70;;;;;;;10.90;50.22;102358.69;692565;28;46185;-63
2022/03/26 00:13:41;;;;;;;0.90;0.90;;;;;;;10.88;50.33;102357.97;691349;28;70430;-64
2022/03/26 00:14:02;;;;;;;1.10;1.10;;;;;;;10.89;49.93;102359.66;692636;28;22507;-64
2022/03/26 00:14:24;;;;;;;0.77;0.77;;;;;;;10.89;50.26;102361.50;693903;28;1697;-64
2022/03/26 00:14:45;;;;;;;0.70;0.70;;;;;;;10.90;50.11;102368.66;692603;28;45359;-64
2022/03/26 00:15:07;;;;;;;0.88;0.88;;;;;;;10.90;50.15;102355.13;693491;28;23491;-64
2022/03/26 00:15:29;;;;;;;1.10;1.10;;;;;;;10.89;49.96;102358.81;691799;28;47601;-63
2022/03/26 00:15:50;;;;;;;1.00;1.00;;;;;;;10.87;49.98;102361.66;693828;28;21606;-64
2022/03/26 00:16:12;;;;;;;0.70;0.70;;;;;;;10.87;50.32;102358.94;693112;28;47299;-63
2022/03/26 00:16:33;;;;;;;0.75;0.75;;;;;;;10.84;50.19;102351.13;693653;28;21659;-63
2022/03/26 00:16:54;;;;;;;1.10;1.10;;;;;;;10.88;49.87;102357.97;693371;28;891;-63
2022/03/26 00:17:16;;;;;;;0.93;0.93;;;;;;;10.89;50.19;102361.50;694195;28;1456;-64
2022/03/26 00:17:38;;;;;;;0.85;0.85;;;;;;;10.88;50.18;102366.06;692724;28;44464;-64
2022/03/26 00:17:59;;;;;;;0.60;0.60;;;;;;;10.89;50.00;102361.50;693272;28;45268;-63
2022/03/26 00:18:20;;;;;;;0.95;0.95;;;;;;;10.85;50.20;102355.53;693805;28;23446;-63
2022/03/26 00:18:42;;;;;;;1.10;1.10;;;;;;;10.88;50.15;102365.19;692361;28;21362;-63
2022/03/26 00:19:03;;;;;;;0.98;0.98;;;;;;;10.84;49.96;102355.69;692445;28;45320;-63
2022/03/26 00:19:24;;;;;;;0.90;0.90;;;;;;;10.85;50.03;102360.94;693992;28;23463;-63
2022/03/26 00:19:45;;;;;;;0.98;0.98;;;;;;;10.81;50.04;102357.69;693767;28;23417;-64
2022/03/26 00:20:08;;;;;;;1.10;1.10;;;;;;;10.82;50.06;102363.94;694359;28;22502;-63
2022/03/26 00:20:30;;;;;;;1.00;1.00;;;;;;;10.80;50.26;102364.06;692471;28;45251;-63
2022/03/26 00:20:51;;;;;;;0.90;0.90;;;;;;;10.81;50.37;102362.22;691806;28;69438;-64
2022/03/26 00:21:12;;;;;;;0.93;0.93;;;;;;;10.80;50.36;102361.38;694205;28;22376;-64
2022/03/26 00:21:33;;;;;;;1.10;1.10;;;;;;;10.81;50.23;102363.09;693435;28;22213;-63
2022/03/26 00:21:54;;;;;;;1.20;1.20;;;;;;;10.81;50.49;102362.22;693410;28;22231;-64
2022/03/26 00:22:17;;;;;;;0.93;0.93;;;;;;;10.80;50.01;102360.53;693354;28;22420;-64
2022/03/26 00:22:39;;;;;;;0.80;0.80;;;;;;;10.80;50.13;102360.53;692698;28;47090;-63
2022/03/26 00:23:00;;;;;;;0.90;0.90;;;;;;;10.78;50.20;102363.38;692012;28;69456;-63
2022/03/26 00:23:22;;;;;;;0.90;0.90;;;;;;;10.77;50.29;102361.63;692498;28;22413;-64
2022/03/26 00:23:43;;;;;;;0.93;0.93;;;;;;;10.77;50.57;102360.78;692712;28;46303;-64
2022/03/26 00:24:06;;;;;;;0.93;0.93;;;;;;;10.76;50.17;102368.03;693511;28;22424;-63
2022/03/26 00:24:27;;;;;;;1.00;1.00;;;;;;;10.75;50.51;102363.63;691914;28;67495;-64
2022/03/26 00:24:48;;;;;;;1.13;1.13;;;;;;;10.76;50.70;102354.50;693837;28;22575;-64
2022/03/26 00:25:13;;;;;;;1.27;1.27;;;;;;;10.73;50.25;102356.66;694190;28;22395;-63
2022/03/26 00:25:34;;;;;;;0.93;0.93;;;;;;;10.72;50.54;102361.22;689970;28;115225;-63
2022/03/26 00:25:58;;;;;;;0.90;0.90;;;;;;;10.72;50.42;102361.22;692418;28;46339;-63
2022/03/26 00:26:19;;;;;;;0.90;0.90;;;;;;;10.72;50.35;102363.91;691537;28;69435;-63
2022/03/26 00:26:43;;;;;;;1.30;1.30;;;;;;;10.74;50.55;102363.78;691480;28;69217;-64
2022/03/26 00:27:04;;;;;;;1.30;1.30;;;;;;;10.75;50.39;102362.75;693548;28;46347;-64
2022/03/26 00:27:26;;;;;;;1.15;1.15;;;;;;;10.77;50.31;102360.78;692802;28;1177;-64
2022/03/26 00:27:48;;;;;;;1.13;1.13;;;;;;;10.75;50.55;102355.53;693420;28;22386;-64
2022/03/26 00:28:10;;;;;;;1.38;1.38;;;;;;;10.75;50.61;102363.63;693070;28;44397;-64
2022/03/26 00:28:32;;;;;;;1.30;1.30;;;;;;;10.76;50.49;102357.22;691483;28;67651;-63
2022/03/26 00:28:53;;;;;;;1.08;1.08;;;;;;;10.78;50.19;102359.78;693973;28;23411;-64
2022/03/26 00:29:14;;;;;;;1.92;1.92;;;;;;;10.76;50.32;102351.81;693663;28;23350;-64
2022/03/26 00:29:36;;;;;;;2.55;2.45;;;;;;;10.77;50.34;102358.09;691789;28;22380;-64
2022/03/26 00:29:57;;;;;;;1.92;1.92;;;;;;;10.76;50.69;102365.31;692877;28;45250;-63
2022/03/26 00:30:18;;;;;;;2.40;2.30;;;;;;;10.77;50.48;102358.94;691875;28;23673;-64
2022/03/26 00:30:40;;;;;;;3.75;3.55;;;;;;;10.75;50.59;102360.94;689211;28;23485;-64
2022/03/26 00:31:01;;;;;;;3.63;3.50;;;;;;;10.75;50.43;102363.63;693235;28;46440;-64
2022/03/26 00:31:22;;;;;;;2.95;2.85;;;;;;;10.75;50.71;102360.06;693172;28;24655;-64
2022/03/26 00:31:43;;;;;;;2.35;2.25;;;;;;;10.75;50.52;102360.94;692827;28;23504;-65
2022/03/26 00:32:06;;;;;;;1.90;1.90;;;;;;;10.75;50.55;102354.66;693615;28;24325;-64
2022/03/26 00:32:28;;;;;;;4.63;4.53;;;;;;;10.78;50.68;102362.50;691421;28;69467;-64
2022/03/26 00:32:49;;;;;;;4.57;4.47;;;;;;;10.81;50.42;102364.91;693244;28;44399;-64
2022/03/26 00:33:10;;;;;;;3.67;3.58;;;;;;;10.82;50.67;102359.38;693569;28;23410;-64
2022/03/26 00:33:32;;;;;;;2.97;2.88;;;;;;;10.86;50.25;102361.78;694150;28;22412;-64
2022/03/26 00:33:54;;;;;;;3.55;3.45;;;;;;;10.86;50.21;102362.66;692751;28;45286;-65
2022/03/26 00:34:15;;;;;;;4.60;4.50;;;;;;;10.87;50.38;102368.91;692376;28;45129;-64
2022/03/26 00:34:36;;;;;;;3.92;3.83;;;;;;;10.86;50.49;102356.38;693669;28;21557;-64
2022/03/26 00:34:57;;;;;;;6.00;5.80;;;;;;;10.88;50.26;102370.59;693723;28;21682;-64
2022/03/26 00:35:19;;;;;;;6.60;6.40;;;;;;;10.88;50.43;102362.50;693976;28;22398;-64
2022/03/26 00:35:40;;;;;;;5.18;5.05;;;;;;;10.88;50.28;102366.06;692737;28;44340;-64
2022/03/26 00:36:02;;;;;;;8.43;8.13;;;;;;;10.90;50.36;102365.94;694073;28;21558;-64
2022/03/26 00:36:23;;;;;;;10.55;10.15;;;;;;;10.91;50.11;102371.22;692928;28;45422;-64
2022/03/26 00:36:44;;;;;;;8.23;8.02;;;;;;;10.91;50.03;102359.53;693663;28;22429;-64
2022/03/26 00:37:06;;;;;;;9.48;9.18;;;;;;;10.93;50.25;102365.66;694412;28;21589;-64
2022/03/26 00:37:27;;;;;;;9.32;9.02;;;;;;;10.94;49.87;102370.94;692991;28;43576;-65
2022/03/26 00:37:52;;;;;;;12.82;12.40;;;;;;;10.94;50.11;102364.66;693795;28;21560;-64
2022/03/26 00:38:14;;;;;;;13.85;13.35;;;;;;;10.92;50.02;102366.66;691638;28;91441;-64
2022/03/26 00:38:35;;;;;;;11.93;11.52;;;;;;;10.87;49.98;102360.81;692888;28;44401;-64
2022/03/26 00:38:56;;;;;;;17.25;16.65;;;;;;;10.92;49.88;102362.09;693488;28;21488;-64
2022/03/26 00:39:17;;;;;;;19.67;18.95;;;;;;;10.94;50.07;102362.81;694018;28;22227;-64
2022/03/26 00:39:39;;;;;;;16.73;16.13;;;;;;;10.94;50.03;102364.66;693323;28;21539;-64
2022/03/26 00:40:01;;;;;;;20.77;19.98;;;;;;;10.94;50.07;102365.53;692997;28;44409;-64
2022/03/26 00:40:22;;;;;;;21.73;20.92;;;;;;;10.95;50.28;102371.78;693288;28;46401;-65
2022/03/26 00:40:43;;;;;;;27.52;26.13;;;;;;;10.96;49.97;102368.09;690332;28;21534;-64
2022/03/26 00:41:05;;;;;;;29.92;28.58;;;;;;;10.98;49.94;102371.50;693960;28;22186;-64
2022/03/26 00:41:28;;;;;;;25.00;24.00;;;;;;;10.96;50.05;102366.22;692958;28;46583;-64
2022/03/26 00:41:49;;;;;;;35.95;34.47;;;;;;;10.98;49.95;102368.78;691691;28;69145;-64
2022/03/26 00:42:10;;;;;;;44.63;42.72;;;;;;;11.00;49.71;102369.50;693950;28;21550;-64
2022/03/26 00:42:32;;;;;;;41.08;39.38;;;;;;;10.99;49.91;102359.69;694303;28;22465;-64
2022/03/26 00:42:53;;;;;;;35.90;34.40;;;;;;;11.00;50.14;102362.25;693200;28;45084;-64
2022/03/26 00:43:14;;;;;;;32.85;31.50;;;;;;;11.02;49.92;102364.81;693630;28;21282;-64
2022/03/26 00:43:36;;;;;;;49.53;47.45;;;;;;;11.02;50.05;102369.34;693461;28;22405;-64
2022/03/26 00:43:58;;;;;;;53.90;51.60;;;;;;;11.02;49.52;102362.13;692799;28;45523;-64
2022/03/26 00:44:20;;;;;;;48.28;46.28;;;;;;;11.04;50.07;102361.97;692981;28;44457;-64
2022/03/26 00:44:41;;;;;;;44.60;42.70;;;;;;;11.03;49.74;102369.22;693845;28;23772;-64
2022/03/26 00:45:03;;;;;;;48.03;46.03;;;;;;;11.04;49.71;102367.38;693902;28;23470;-64
2022/03/26 00:45:26;;;;;;;49.72;47.58;;;;;;;11.04;49.70;102370.09;692076;28;69254;-64
2022/03/26 00:45:47;;;;;;;50.85;48.65;;;;;;;11.06;49.89;102362.69;692101;28;69453;-64
2022/03/26 00:46:08;;;;;;;55.95;53.55;;;;;;;11.06;49.77;102360.81;693666;28;21527;-65
2022/03/26 00:46:29;;;;;;;56.10;53.70;;;;;;;11.06;49.79;102368.09;694496;28;22394;-64
2022/03/26 00:46:51;;;;;;;62.45;59.75;;;;;;;11.03;49.58;102363.81;691780;28;23480;-64
2022/03/26 00:47:12;;;;;;;61.63;58.97;;;;;;;11.03;49.88;102360.25;693083;28;46592;-64
2022/03/26 00:47:33;;;;;;;72.80;69.70;;;;;;;11.03;50.00;102363.81;694135;28;21484;-64
2022/03/26 00:47:56;;;;;;;80.43;77.03;;;;;;;11.02;50.00;102367.53;694144;28;23655;-64
2022/03/26 00:48:17;;;;;;;83.93;80.35;;;;;;;11.03;49.70;102357.56;694442;28;1201;-64
2022/03/26 00:48:38;;;;;;;99.40;95.28;;;;;;;11.03;49.90;102365.66;694109;28;21299;-64
2022/03/26 00:48:59;;;;;;;99.23;95.13;;;;;;;11.05;49.60;102358.25;694320;28;22373;-64
2022/03/26 00:49:20;;;;;;;91.05;87.25;;;;;;;11.04;49.64;102357.41;692724;28;47447;-65
2022/03/26 00:49:42;;;;;;;97.07;92.97;;;;;;;11.05;49.69;102355.56;693006;28;23201;-64
2022/03/26 00:50:04;;;;;;;107.07;102.63;;;;;;;11.04;49.97;102362.81;693061;28;46408;-64
2022/03/26 00:50:26;;;;;;;99.95;95.75;;;;;;;11.03;49.81;102355.69;693384;28;44374;-65
2022/03/26 00:50:48;;;;;;;112.72;108.05;;;;;;;11.04;49.78;102357.41;693930;28;22248;-64
2022/03/26 00:51:09;;;;;;;119.63;114.72;;;;;;;11.03;49.99;102358.41;693260;28;46345;-64
2022/03/26 00:51:30;;;;;;;116.35;111.55;;;;;;;11.03;49.91;102355.69;693938;28;21553;-64
2022/03/26 00:51:51;;;;;;;125.65;120.45;;;;;;;11.04;49.98;102359.28;692640;28;43169;-63
2022/03/26 00:52:13;;;;;;;126.85;121.60;;;;;;;11.02;50.03;102355.84;693761;28;23439;-64
2022/03/26 00:52:34;;;;;;;145.55;139.43;;;;;;;11.02;49.87;102359.41;692547;28;44326;-64
2022/03/26 00:52:56;;;;;;;148.07;141.93;;;;;;;11.04;49.63;102353.88;693841;28;23356;-65
2022/03/26 00:53:17;;;;;;;146.85;140.75;;;;;;;11.04;49.89;102357.41;692051;28;67504;-65
2022/03/26 00:53:39;;;;;;;174.00;166.75;;;;;;;11.03;49.92;102355.69;693728;28;23427;-65
2022/03/26 00:54:01;;;;;;;212.05;203.15;;;;;;;11.03;49.82;102354.84;692999;28;45239;-64
2022/03/26 00:54:23;;;;;;;209.25;200.10;;;;;;;11.03;49.73;102358.41;693999;28;21150;-65
2022/03/26 00:54:44;;;;;;;240.63;228.52;;;;;;;11.04;49.97;102354.72;693032;28;46336;-64
2022/03/26 00:55:07;;;;;;;321.00;303.55;;;;;;;11.02;49.75;102351.31;693587;28;23490;-64
2022/03/26 00:55:29;;;;;;;436.85;408.20;;;;;;;11.02;50.11;102355.84;691126;28;92342;-64
2022/03/26 00:55:50;;;;;;;458.48;417.33;;;;;;;11.01;49.88;102355.00;693204;28;44560;-65
2022/03/26 00:56:11;;;;;;;454.83;414.35;;;;;;;11.01;50.08;102346.88;693964;28;22784;-64
2022/03/26 00:56:33;;;;;;;453.88;410.90;;;;;;;11.00;49.90;102346.03;691919;28;47144;-64
2022/03/26 00:56:54;;;;;;;457.23;410.83;;;;;;;11.02;50.11;102350.44;693857;28;21449;-64
2022/03/26 00:57:16;;;;;;;448.40;406.65;;;;;;;10.99;49.92;102347.03;692577;28;44391;-63
2022/03/26 00:57:37;;;;;;;457.85;415.48;;;;;;;10.99;50.05;102354.28;693903;28;23508;-63
2022/03/26 00:57:58;;;;;;;450.15;403.80;;;;;;;10.95;50.13;102339.34;694079;28;22497;-64
2022/03/26 00:58:20;;;;;;;449.90;404.20;;;;;;;10.94;49.97;102349.31;693925;28;23516;-64
2022/03/26 00:58:51;;;;;;;442.17;407.52;;;;;;;10.91;50.26;102351.41;692285;28;61785;-64
2022/03/26 00:59:12;;;;;;;435.67;403.10;;;;;;;10.93;49.96;102350.28;693612;28;21689;-64
2022/03/26 00:59:33;;;;;;;432.42;399.55;;;;;;;10.90;50.01;102345.16;693805;28;23706;-64
2022/03/26 00:59:58;;;;;;;435.50;398.80;;;;;;;10.90;50.29;102342.47;693585;28;22318;-64
2022/03/26 01:00:19;;;;;;;443.60;399.53;;;;;;;10.90;50.16;102349.72;690451;28;115099;-65
2022/03/26 01:00:42;;;;;;;434.85;386.92;;;;;;;10.90;50.15;102339.75;692900;28;46306;-64
2022/03/26 01:01:03;;;;;;;431.20;389.08;;;;;;;10.92;50.34;102348.56;692966;28;46404;-64
2022/03/26 01:01:24;;;;;;;440.08;406.20;;;;;;;10.91;50.31;102344.19;693809;28;23523;-64
2022/03/26 01:01:46;;;;;;;439.88;403.52;;;;;;;10.92;50.32;102342.31;692189;28;44432;-64
2022/03/26 01:02:07;;;;;;;444.20;405.33;;;;;;;10.89;50.28;102342.59;692772;28;46477;-64
2022/03/26 01:02:28;;;;;;;443.67;406.42;;;;;;;10.88;50.39;102354.38;694131;28;22485;-65
2022/03/26 01:02:50;;;;;;;437.20;399.70;;;;;;;10.87;50.19;102350.00;693892;28;23455;-64
2022/03/26 01:03:11;;;;;;;430.88;392.10;;;;;;;10.82;50.15;102345.84;692967;28;45270;-64
2022/03/26 01:03:32;;;;;;;406.90;372.10;;;;;;;10.84;50.42;102344.88;694084;28;22178;-64
2022/03/26 01:03:53;;;;;;;414.70;377.55;;;;;;;10.81;50.43;102346.88;693939;28;22402;-64
2022/03/26 01:04:14;;;;;;;425.92;386.63;;;;;;;10.80;50.47;102341.59;693912;28;22234;-65
2022/03/26 01:04:38;;;;;;;409.60;375.00;;;;;;;10.77;50.48;102337.31;693958;28;23507;-64
2022/03/26 01:04:59;;;;;;;408.40;373.08;;;;;;;10.76;50.42;102346.41;692485;28;69372;-64
2022/03/26 01:05:20;;;;;;;406.33;369.77;;;;;;;10.77;50.72;102347.28;693392;28;22617;-64
2022/03/26 01:05:42;;;;;;;387.27;360.90;;;;;;;10.75;50.63;102341.13;693156;28;43731;-64
2022/03/26 01:06:04;;;;;;;340.25;321.30;;;;;;;10.75;50.37;102347.44;694043;28;22399;-64
2022/03/26 01:06:25;;;;;;;316.83;300.63;;;;;;;10.73;50.29;102343.13;693196;28;45375;-65
2022/03/26 01:06:46;;;;;;;344.70;324.92;;;;;;;10.72;50.72;102345.00;692526;28;46307;-64
2022/03/26 01:07:07;;;;;;;330.70;312.23;;;;;;;10.70;50.60;102344.25;693998;28;21301;-64
2022/03/26 01:07:29;;;;;;;335.60;317.35;;;;;;;10.70;50.57;102343.41;693853;28;21526;-65
2022/03/26 01:07:52;;;;;;;316.30;300.15;;;;;;;10.67;50.47;102339.13;693076;28;46995;-64
2022/03/26 01:08:14;;;;;;;330.17;311.70;;;;;;;10.66;50.64;102340.16;690124;28;44449;-65
2022/03/26 01:08:35;;;;;;;386.20;360.80;;;;;;;10.66;50.71;102334.75;689320;28;66818;-65
2022/03/26 01:08:56;;;;;;;391.70;365.38;;;;;;;10.64;50.45;102334.88;691526;28;23478;-64
2022/03/26 01:09:18;;;;;;;372.70;347.40;;;;;;;10.63;50.79;102337.72;690804;28;23432;-64
2022/03/26 01:09:39;;;;;;;389.75;363.48;;;;;;;10.64;50.51;102344.81;690042;28;45364;-64
2022/03/26 01:10:01;;;;;;;381.25;356.95;;;;;;;10.60;50.75;102338.84;690832;28;23435;-64
2022/03/26 01:10:22;;;;;;;385.58;360.40;;;;;;;10.61;50.81;102339.69;693995;28;23396;-64
2022/03/26 01:10:44;;;;;;;389.02;363.20;;;;;;;10.58;50.93;102339.97;693686;28;22193;-64
2022/03/26 01:11:05;;;;;;;375.98;350.48;;;;;;;10.58;50.66;102340.84;692321;28;69430;-64
2022/03/26 01:11:26;;;;;;;400.38;371.38;;;;;;;10.51;50.84;102338.81;694056;28;22357;-65
2022/03/26 01:11:47;;;;;;;406.83;376.35;;;;;;;10.49;50.99;102338.97;692791;28;23687;-65
2022/03/26 01:12:11;;;;;;;411.75;382.33;;;;;;;10.51;51.07;102346.91;693189;28;24323;-64
2022/03/26 01:12:33;;;;;;;417.50;387.35;;;;;;;10.51;50.89;102347.75;691796;28;93177;-64
2022/03/26 01:12:54;;;;;;;421.77;389.48;;;;;;;10.48;50.97;102345.34;693944;28;23184;-64
2022/03/26 01:13:16;;;;;;;406.85;373.20;;;;;;;10.49;50.95;102340.81;692733;28;46374;-65
2022/03/26 01:13:39;;;;;;;414.45;375.35;;;;;;;10.49;51.41;102344.34;692923;28;46314;-64
2022/03/26 01:14:00;;;;;;;423.13;380.20;;;;;;;10.48;51.23;102345.34;693137;28;47571;-64
2022/03/26 01:14:22;;;;;;;422.35;376.92;;;;;;;10.47;51.27;102340.94;693998;28;10720;-64
2022/03/26 01:14:44;;;;;;;415.83;364.45;;;;;;;10.46;51.18;102345.47;693197;28;47072;-64
2022/03/26 01:15:07;;;;;;;423.60;357.83;;;;;;;10.49;51.16;102347.06;693170;28;46319;-63
2022/03/26 01:15:28;;;;;;;442.58;373.42;;;;;;;10.48;51.00;102339.94;694145;28;6251;-64
2022/03/26 01:15:50;;;;;;;428.23;371.77;;;;;;;10.50;51.27;102342.50;695057;28;1706;-64
2022/03/26 01:16:12;;;;;;;438.00;355.95;;;;;;;10.49;51.00;102338.97;694056;28;22460;-64
2022/03/26 01:16:33;;;;;;;467.55;355.27;;;;;;;10.50;51.20;102343.38;687331;28;63907;-64
2022/03/26 01:16:54;;;;;;;458.15;368.13;;;;;;;10.50;51.02;102347.91;689144;28;22392;-65
2022/03/26 01:17:16;;;;;;;432.45;370.58;;;;;;;10.48;51.17;102345.34;689353;28;22947;-65
2022/03/26 01:17:38;;;;;;;439.13;367.15;;;;;;;10.48;51.16;102345.34;689464;28;22240;-64
2022/03/26 01:17:59;;;;;;;443.42;370.83;;;;;;;10.48;51.31;102345.34;688966;28;47496;-64
2022/03/26 01:18:20;;;;;;;441.60;376.98;;;;;;;10.48;51.46;102349.91;690134;28;23482;-64
2022/03/26 01:18:41;;;;;;;444.52;376.35;;;;;;;10.44;51.20;102342.06;694094;28;22401;-67
2022/03/26 01:19:03;;;;;;;444.15;374.55;;;;;;;10.48;51.18;102344.50;693145;28;46584;-65
2022/03/26 01:19:26;;;;;;;448.75;373.48;;;;;;;10.45;51.16;102338.38;694908;28;1677;-65
2022/03/26 01:19:47;;;;;;;453.20;366.85;;;;;;;10.43;51.26;102340.34;693390;28;22262;-64
2022/03/26 01:20:08;;;;;;;458.23;359.25;;;;;;;10.47;51.22;102346.34;693970;28;23485;-64
2022/03/26 01:20:31;;;;;;;460.38;355.52;;;;;;;10.48;51.28;102339.09;693600;28;46067;-64
2022/03/26 01:20:52;;;;;;;468.45;359.60;;;;;;;10.44;51.62;102342.06;693294;28;46816;-64
2022/03/26 01:21:13;;;;;;;474.30;364.63;;;;;;;10.48;51.16;102350.75;694152;28;22310;-65
2022/03/26 01:21:34;;;;;;;473.80;358.38;;;;;;;10.49;51.11;102347.06;692716;28;23736;-64
2022/03/26 01:21:56;;;;;;;468.58;355.75;;;;;;;10.50;51.32;102342.50;693637;28;22349;-64
2022/03/26 01:22:17;;;;;;;458.30;369.33;;;;;;;10.51;51.26;102345.06;692786;28;46323;-64
2022/03/26 01:22:38;;;;;;;435.77;378.67;;;;;;;10.52;51.04;102343.25;693409;28;44430;-64
2022/03/26 01:22:59;;;;;;;435.23;376.63;;;;;;;10.51;51.13;102331.56;694131;28;22169;-65
2022/03/26 01:23:23;;;;;;;450.83;368.20;;;;;;;10.53;51.03;102347.63;693801;28;22368;-65
2022/03/26 01:23:46;;;;;;;455.90;364.08;;;;;;;10.53;51.01;102342.22;691755;28;69411;-64
2022/03/26 01:24:07;;;;;;;424.77;374.63;;;;;;;10.56;51.18;102339.25;691914;28;69231;-64
2022/03/26 01:24:29;;;;;;;430.08;380.65;;;;;;;10.57;51.29;102338.28;693974;28;22379;-64
2022/03/26 01:24:50;;;;;;;469.75;368.13;;;;;;;10.59;51.30;102342.53;692314;28;67558;-64
2022/03/26 01:25:11;;;;;;;465.47;358.43;;;;;;;10.60;51.03;102338.00;693010;28;46243;-65
2022/03/26 01:25:32;;;;;;;445.17;369.33;;;;;;;10.60;50.78;102333.44;693136;28;45335;-65
2022/03/26 01:25:54;;;;;;;445.55;369.70;;;;;;;10.61;50.93;102340.56;693851;28;24748;-65
2022/03/26 01:26:17;;;;;;;474.00;351.42;;;;;;;10.64;50.95;102336.72;692608;28;46294;-65
2022/03/26 01:26:38;;;;;;;470.67;354.88;;;;;;;10.65;50.82;102335.72;692471;28;46385;-65
2022/03/26 01:26:59;;;;;;;472.75;355.25;;;;;;;10.64;50.89;102334.00;693843;28;22378;-64
2022/03/26 01:27:22;;;;;;;475.92;350.55;;;;;;;10.64;51.12;102336.72;693837;28;23487;-64
2022/03/26 01:27:43;;;;;;;473.50;336.42;;;;;;;10.63;50.80;102343.13;692520;28;67470;-64
2022/03/26 01:28:04;;;;;;;421.38;331.63;;;;;;;10.62;51.11;102336.84;693518;28;22417;-64
2022/03/26 01:28:25;;;;;;;380.02;352.60;;;;;;;10.61;50.91;102332.44;694087;28;23551;-65
2022/03/26 01:28:47;;;;;;;382.60;359.48;;;;;;;10.60;50.81;102332.59;693145;28;45325;-65
2022/03/26 01:29:09;;;;;;;390.42;366.67;;;;;;;10.61;51.16;102340.56;693128;28;44326;-64
2022/03/26 01:29:30;;;;;;;402.67;377.52;;;;;;;10.60;51.20;102335.28;693493;28;22399;-65
2022/03/26 01:29:51;;;;;;;403.92;378.63;;;;;;;10.60;50.86;102333.44;694035;28;23295;-64
2022/03/26 01:30:13;;;;;;;412.08;385.30;;;;;;;10.59;50.92;102330.88;694062;28;24206;-65
2022/03/26 01:30:34;;;;;;;417.45;379.67;;;;;;;10.61;50.76;102335.16;692856;28;43126;-64
2022/03/26 01:30:56;;;;;;;458.80;355.92;;;;;;;10.62;51.00;102333.28;694233;28;22369;-65
2022/03/26 01:31:19;;;;;;;427.95;381.75;;;;;;;10.61;51.02;102334.28;693099;28;44181;-65
2022/03/26 01:31:41;;;;;;;444.58;365.20;;;;;;;10.61;50.88;102336.97;696096;28;69421;-64
2022/03/26 01:32:03;;;;;;;462.50;362.52;;;;;;;10.62;50.83;102331.44;698070;28;46678;-64
2022/03/26 01:32:24;;;;;;;452.33;365.05;;;;;;;10.63;50.77;102335.00;697987;28;45081;-65
2022/03/26 01:32:45;;;;;;;459.88;363.00;;;;;;;10.61;51.21;102328.88;699363;28;23424;-64
2022/03/26 01:33:07;;;;;;;473.77;357.75;;;;;;;10.60;50.86;102327.19;699055;28;22234;-65
2022/03/26 01:33:28;;;;;;;477.65;359.83;;;;;;;10.58;50.90;102326.44;696803;28;46584;-65
2022/03/26 01:33:49;;;;;;;477.30;356.15;;;;;;;10.57;51.18;102328.31;693987;28;23756;-65
2022/03/26 01:34:10;;;;;;;475.75;353.95;;;;;;;10.57;51.35;102333.72;693465;28;23515;-65
2022/03/26 01:34:32;;;;;;;464.13;364.90;;;;;;;10.58;50.92;102331.84;694550;28;3240;-65
2022/03/26 01:34:53;;;;;;;428.13;388.77;;;;;;;10.56;51.14;102329.28;693382;28;45256;-65
2022/03/26 01:35:14;;;;;;;436.48;396.80;;;;;;;10.56;50.85;102331.16;693863;28;21545;-64
2022/03/26 01:35:36;;;;;;;437.67;392.40;;;;;;;10.55;51.26;102324.91;692969;28;22459;-65
2022/03/26 01:35:58;;;;;;;448.83;376.15;;;;;;;10.56;51.28;102336.56;693445;28;38939;-65
2022/03/26 01:36:19;;;;;;;475.77;359.00;;;;;;;10.54;51.10;102327.75;692695;28;40374;-65
2022/03/26 01:36:40;;;;;;;476.95;353.35;;;;;;;10.53;51.14;102326.03;692888;28;23731;-66
2022/03/26 01:37:02;;;;;;;474.90;344.90;;;;;;;10.53;51.31;102323.31;694111;28;22468;-64
2022/03/26 01:37:24;;;;;;;474.15;343.65;;;;;;;10.52;51.26;102327.03;694233;28;20700;-65
2022/03/26 01:37:46;;;;;;;475.23;348.52;;;;;;;10.52;51.55;102324.31;692711;28;46565;-65
2022/03/26 01:38:07;;;;;;;455.80;360.20;;;;;;;10.52;51.44;102327.03;694117;28;1036;-65
2022/03/26 01:38:30;;;;;;;453.30;369.20;;;;;;;10.53;51.10;102326.91;690984;28;45340;-65
2022/03/26 01:38:52;;;;;;;463.98;356.67;;;;;;;10.52;51.48;102325.16;692189;28;68564;-65
2022/03/26 01:39:13;;;;;;;456.75;367.63;;;;;;;10.52;51.00;102325.16;694102;28;12357;-65